Time;durP1;ratioP1;P1;durP2;ratioP2;P2;SDS_P1;SDS_P2;PMS_P1;PMS_P2;Temp;Humidity;BMP_temperature;BMP_pressure;BME280_temperature;BME280_humidity;BME280_pressure;Samples;Min_cycle;Max_cycle;Signal;HPM_P1;HPM_P2
2021/07/11 00:03:13;;;;;;;7.07;5.00;;;;;;;19.91;64.41;97781.94;8416117;28;20432;-65
2021/07/11 00:07:15;;;;;;;6.10;4.63;;;;;;;19.83;64.77;97781.75;8415828;28;20219;-65
2021/07/11 00:11:19;;;;;;;6.97;4.13;;;;;;;19.86;64.25;97820.06;8415741;28;20227;-65
2021/07/11 00:15:24;;;;;;;9.87;4.10;;;;;;;19.62;65.21;97797.50;8415803;28;20208;-64
2021/07/11 00:19:27;;;;;;;4.73;4.10;;;;;;;19.86;64.25;97805.13;8415513;28;20208;-64
2021/07/11 00:23:29;;;;;;;4.63;4.13;;;;;;;19.80;64.34;97810.06;8415294;28;20206;-65
2021/07/11 00:27:33;;;;;;;7.33;4.47;;;;;;;19.82;63.94;97801.09;8415255;28;20215;-64
2021/07/11 00:31:36;;;;;;;6.47;4.13;;;;;;;19.99;63.91;97799.69;8415116;28;20227;-65
2021/07/11 00:35:39;;;;;;;8.93;4.70;;;;;;;20.04;63.56;97804.53;8415222;28;20268;-64
2021/07/11 00:39:42;;;;;;;9.43;5.63;;;;;;;19.97;64.14;97796.34;8415192;28;20205;-65
2021/07/11 00:43:46;;;;;;;11.77;5.30;;;;;;;20.02;63.89;97799.41;8414651;28;20203;-64
2021/07/11 00:47:49;;;;;;;6.70;5.20;;;;;;;20.05;63.96;97788.63;8414845;28;20206;-64
2021/07/11 00:51:52;;;;;;;8.67;4.90;;;;;;;20.05;64.11;97791.25;8414432;28;20229;-65
2021/07/11 00:55:54;;;;;;;4.83;4.40;;;;;;;20.09;63.97;97786.56;8414352;28;20495;-65
2021/07/11 00:59:59;;;;;;;4.50;4.00;;;;;;;20.05;63.84;97778.13;8414490;28;20206;-65
2021/07/11 01:04:04;;;;;;;7.13;4.53;;;;;;;20.00;63.99;97779.47;8414219;28;20498;-65
2021/07/11 01:08:10;;;;;;;5.33;4.53;;;;;;;20.02;63.74;97772.28;8413919;28;20219;-65
2021/07/11 01:12:18;;;;;;;6.10;4.30;;;;;;;20.04;62.99;97797.47;8407343;28;20540;-65
2021/07/11 01:16:25;;;;;;;4.30;4.00;;;;;;;20.04;63.25;97791.38;8413004;28;20204;-65
2021/07/11 01:20:41;;;;;;;4.70;4.20;;;;;;;20.11;63.76;97792.53;8413944;28;20213;-65
2021/07/11 01:24:51;;;;;;;4.77;4.37;;;;;;;20.05;64.07;97798.31;8414055;28;20218;-64
2021/07/11 01:28:56;;;;;;;5.07;4.57;;;;;;;20.09;63.99;97800.53;8413812;28;20518;-64
2021/07/11 01:33:00;;;;;;;11.33;4.57;;;;;;;20.06;64.47;97803.41;8413393;28;20269;-65
2021/07/11 01:37:04;;;;;;;6.67;4.60;;;;;;;20.10;64.62;97812.72;8413371;28;20401;-64
2021/07/11 01:41:09;;;;;;;8.00;4.60;;;;;;;20.05;63.74;97814.09;8413691;28;20366;-65
2021/07/11 01:45:14;;;;;;;5.03;4.53;;;;;;;20.08;64.23;97822.53;8417714;28;20245;-65
2021/07/11 01:49:17;;;;;;;6.53;4.70;;;;;;;20.05;64.16;97835.13;8419901;28;20206;-65
2021/07/11 01:53:22;;;;;;;5.47;4.80;;;;;;;20.01;63.94;97845.06;8420168;28;20210;-65
2021/07/11 01:57:26;;;;;;;7.23;4.90;;;;;;;20.03;64.17;97858.03;8420012;28;20199;-65
2021/07/11 02:01:30;;;;;;;5.27;4.77;;;;;;;20.04;64.90;97857.09;8419800;28;20202;-65
2021/07/11 02:05:33;;;;;;;7.43;5.47;;;;;;;20.08;65.05;97861.13;8420012;28;20219;-66
2021/07/11 02:09:36;;;;;;;7.97;5.10;;;;;;;20.09;65.19;97858.38;8419917;28;20233;-65
2021/07/11 02:13:43;;;;;;;5.63;4.70;;;;;;;20.11;65.59;97859.06;8420118;28;20200;-65
2021/07/11 02:17:50;;;;;;;5.57;4.40;;;;;;;20.13;65.71;97858.13;8420095;28;20203;-65
2021/07/11 02:21:54;;;;;;;5.53;5.07;;;;;;;20.11;66.73;97864.31;8420015;28;20209;-65
2021/07/11 02:25:58;;;;;;;7.90;5.10;;;;;;;20.03;66.97;97864.16;8420682;28;20517;-65
2021/07/11 02:30:06;;;;;;;6.97;5.00;;;;;;;20.08;66.73;97867.22;8420152;28;20241;-64
2021/07/11 02:34:11;;;;;;;5.77;4.70;;;;;;;20.13;67.37;97866.84;8419591;28;20517;-64
2021/07/11 02:38:16;;;;;;;5.73;5.13;;;;;;;20.07;67.88;97873.44;8419181;28;20207;-65
2021/07/11 02:42:22;;;;;;;4.73;4.27;;;;;;;20.09;67.48;97863.63;8419264;28;20203;-64
2021/07/11 02:46:28;;;;;;;7.97;4.93;;;;;;;20.10;67.81;97862.69;8419129;28;20207;-64
2021/07/11 02:50:34;;;;;;;6.40;4.57;;;;;;;20.13;68.10;97869.47;8419152;28;20232;-64
2021/07/11 02:54:41;;;;;;;4.87;4.47;;;;;;;20.11;67.96;97866.13;8417733;28;20199;-64
2021/07/11 02:58:44;;;;;;;5.23;4.40;;;;;;;20.06;67.99;97868.31;8418785;28;20200;-65
2021/07/11 03:02:47;;;;;;;5.10;4.17;;;;;;;20.10;68.47;97870.56;8418587;28;20214;-64
2021/07/11 03:06:51;;;;;;;4.90;4.10;;;;;;;20.10;68.32;97874.97;8418324;28;20232;-65
2021/07/11 03:10:55;;;;;;;5.93;3.83;;;;;;;20.11;68.62;97868.75;8418266;28;20226;-65
2021/07/11 03:14:58;;;;;;;4.93;3.57;;;;;;;20.09;68.42;97878.56;8418216;28;20199;-65
2021/07/11 03:19:01;;;;;;;3.50;3.20;;;;;;;20.13;68.84;97881.78;8416984;28;20466;-65
2021/07/11 03:23:06;;;;;;;2.60;2.40;;;;;;;20.03;68.28;97885.19;8417633;28;20396;-65
2021/07/11 03:27:09;;;;;;;2.53;2.33;;;;;;;19.95;68.43;97882.34;8417566;28;20202;-65
2021/07/11 03:31:11;;;;;;;5.43;2.37;;;;;;;19.95;68.27;97886.78;8417286;28;20235;-65
2021/07/11 03:35:15;;;;;;;2.50;2.30;;;;;;;19.90;68.59;97885.38;8417320;28;20195;-65
2021/07/11 03:39:19;;;;;;;2.63;1.90;;;;;;;19.98;67.72;97894.41;8417236;28;20465;-64
2021/07/11 03:43:23;;;;;;;3.07;2.10;;;;;;;19.87;67.53;97895.31;8417141;28;20215;-65
2021/07/11 03:47:33;;;;;;;3.40;2.20;;;;;;;19.82;67.55;97894.84;8417005;28;20211;-65
2021/07/11 03:51:39;;;;;;;2.30;2.10;;;;;;;19.92;67.66;97893.97;8416625;28;20227;-64
2021/07/11 03:55:43;;;;;;;3.13;2.07;;;;;;;19.87;67.47;97903.19;8416786;28;20198;-65
2021/07/11 03:59:47;;;;;;;3.57;2.27;;;;;;;19.85;67.90;97905.94;8416599;28;20198;-65
2021/07/11 04:03:50;;;;;;;2.73;1.83;;;;;;;19.88;67.04;97918.00;8416499;28;20382;-65
2021/07/11 04:07:54;;;;;;;2.73;2.43;;;;;;;19.78;67.25;97915.31;8415938;28;20223;-65
2021/07/11 04:11:58;;;;;;;3.00;2.20;;;;;;;19.77;67.19;97918.06;8416574;28;20336;-65
2021/07/11 04:16:04;;;;;;;2.27;2.07;;;;;;;19.67;67.62;97921.41;8416113;28;20227;-65
2021/07/11 04:20:08;;;;;;;3.37;2.00;;;;;;;19.80;67.49;97930.94;8386245;28;20200;-65
2021/07/11 04:24:11;;;;;;;2.30;2.03;;;;;;;19.46;68.43;97933.69;8382928;28;20578;-65
2021/07/11 04:28:15;;;;;;;2.90;2.00;;;;;;;19.58;68.38;97926.59;8383060;28;20242;-64
2021/07/11 04:32:18;;;;;;;3.80;2.10;;;;;;;19.73;68.07;97934.06;8382351;28;20229;-64
2021/07/11 04:36:21;;;;;;;4.70;1.80;;;;;;;19.75;67.58;97927.88;8382524;28;20215;-65
2021/07/11 04:40:25;;;;;;;6.40;1.90;;;;;;;19.74;67.38;97929.63;8382272;28;20388;-65
2021/07/11 04:44:29;;;;;;;2.87;1.73;;;;;;;19.71;67.27;97930.69;8382043;28;20199;-64
2021/07/11 04:48:32;;;;;;;2.17;1.60;;;;;;;19.65;67.53;97931.22;8381932;28;20230;-65
2021/07/11 04:52:37;;;;;;;4.17;1.90;;;;;;;19.78;67.65;97932.84;8397686;28;20222;-64
2021/07/11 04:56:40;;;;;;;4.70;1.90;;;;;;;19.67;67.55;97937.19;8415052;28;20389;-65
2021/07/11 05:00:44;;;;;;;2.53;1.83;;;;;;;19.68;67.56;97936.19;8414879;28;20206;-64
2021/07/11 05:04:47;;;;;;;2.77;1.57;;;;;;;19.68;67.34;97943.25;8415105;28;20210;-65
2021/07/11 05:08:50;;;;;;;2.70;1.50;;;;;;;19.62;67.21;97944.59;8415151;28;20223;-64
2021/07/11 05:12:53;;;;;;;1.90;1.40;;;;;;;19.61;67.39;97948.19;8414591;28;20238;-64
2021/07/11 05:16:57;;;;;;;1.93;1.40;;;;;;;19.64;67.20;97939.22;8414736;28;20206;-64
2021/07/11 05:21:00;;;;;;;1.80;1.50;;;;;;;19.65;67.27;97948.78;8420365;28;20214;-65
2021/07/11 05:25:03;;;;;;;2.10;1.40;;;;;;;19.65;67.18;97948.78;8421277;28;20202;-64
2021/07/11 05:29:06;;;;;;;1.87;1.50;;;;;;;19.65;67.51;97951.41;8419481;28;20234;-64
2021/07/11 05:33:10;;;;;;;1.60;1.30;;;;;;;19.62;67.18;97957.72;8420519;28;20236;-64
2021/07/11 05:37:13;;;;;;;1.77;1.40;;;;;;;19.59;67.74;97952.75;8420574;28;20196;-65
2021/07/11 05:41:16;;;;;;;3.87;1.53;;;;;;;19.59;68.56;97949.25;8420907;28;20213;-64
2021/07/11 05:45:19;;;;;;;1.60;1.50;;;;;;;19.60;67.40;97945.69;8420344;28;20195;-65
2021/07/11 05:49:23;;;;;;;2.63;1.40;;;;;;;19.64;67.24;97947.09;8420918;28;20206;-64
2021/07/11 05:53:25;;;;;;;3.57;1.50;;;;;;;19.53;68.11;97953.22;8386777;28;20228;-65
2021/07/11 05:57:30;;;;;;;2.93;1.40;;;;;;;19.70;66.94;97955.31;8386312;28;20217;-64
2021/07/11 06:01:32;;;;;;;1.83;1.63;;;;;;;19.59;67.73;97960.63;8391353;28;20210;-64
2021/07/11 06:05:38;;;;;;;2.57;1.60;;;;;;;19.71;66.90;97956.97;8419120;28;20517;-65
2021/07/11 06:09:41;;;;;;;1.77;1.47;;;;;;;19.84;67.01;97961.28;8419762;28;20207;-64
2021/07/11 06:13:44;;;;;;;1.80;1.37;;;;;;;19.99;66.82;97957.38;8419424;28;20233;-64
2021/07/11 06:17:47;;;;;;;3.90;1.70;;;;;;;20.07;67.04;97970.69;8419456;28;20199;-65
2021/07/11 06:21:51;;;;;;;2.63;1.60;;;;;;;20.09;66.57;97967.94;8419028;28;20272;-65
2021/07/11 06:25:54;;;;;;;1.97;1.60;;;;;;;20.09;66.62;97976.66;8418732;28;20203;-65
2021/07/11 06:29:56;;;;;;;1.30;1.20;;;;;;;20.11;66.53;97982.63;8404147;28;20562;-65
2021/07/11 06:33:59;;;;;;;1.47;1.27;;;;;;;20.04;66.59;97983.25;8385461;28;20241;-65
2021/07/11 06:38:03;;;;;;;2.80;1.50;;;;;;;19.99;66.85;97978.41;8385269;28;20521;-65
2021/07/11 06:42:06;;;;;;;1.50;1.40;;;;;;;20.08;66.62;97979.41;8385235;28;20203;-64
2021/07/11 06:46:09;;;;;;;1.63;1.43;;;;;;;20.17;66.87;97983.09;8385148;28;20399;-65
2021/07/11 06:50:13;;;;;;;1.30;1.20;;;;;;;20.14;67.16;97991.22;8384903;28;20231;-65
2021/07/11 06:54:17;;;;;;;1.47;1.37;;;;;;;20.05;66.46;97993.66;8384917;28;20524;-64
2021/07/11 06:58:20;;;;;;;5.47;1.67;;;;;;;19.98;67.15;97995.13;8384753;28;20279;-64
2021/07/11 07:02:23;;;;;;;1.50;1.40;;;;;;;20.12;66.49;97993.97;8384434;28;20428;-65
2021/07/11 07:06:26;;;;;;;1.53;1.30;;;;;;;20.05;66.99;98000.72;8384677;28;20519;-65
2021/07/11 07:10:31;;;;;;;1.63;1.53;;;;;;;20.24;66.88;97992.97;8384467;28;20275;-64
2021/07/11 07:14:34;;;;;;;2.60;1.60;;;;;;;20.28;66.97;97991.72;8399799;28;20229;-64
2021/07/11 07:18:37;;;;;;;4.57;2.00;;;;;;;20.47;66.45;97995.47;8400837;28;20200;-65
2021/07/11 07:22:40;;;;;;;4.63;3.20;;;;;;;20.56;66.43;97984.16;8395132;28;20195;-65
2021/07/11 07:26:44;;;;;;;2.77;1.60;;;;;;;20.53;66.49;97992.28;8395143;28;20193;-64
2021/07/11 07:30:47;;;;;;;1.70;1.60;;;;;;;20.57;66.35;98001.59;8404436;28;20219;-64
2021/07/11 07:34:52;;;;;;;3.33;1.50;;;;;;;20.57;66.03;97991.06;8404394;28;20261;-64
2021/07/11 07:38:55;;;;;;;1.30;1.20;;;;;;;20.45;66.18;97989.50;8401619;28;20191;-65
2021/07/11 07:42:59;;;;;;;1.83;1.37;;;;;;;20.29;67.23;97992.56;8391413;28;20210;-65
2021/07/11 07:47:02;;;;;;;3.57;1.33;;;;;;;20.29;67.05;98006.53;8384388;28;20203;-64
2021/07/11 07:51:05;;;;;;;3.50;1.30;;;;;;;20.27;67.75;98012.88;8384277;28;20202;-64
2021/07/11 07:55:09;;;;;;;2.97;1.67;;;;;;;20.29;67.29;98017.06;8392735;28;20219;-65
2021/07/11 07:59:13;;;;;;;3.70;1.70;;;;;;;20.34;67.62;98024.56;8399726;28;20196;-65
2021/07/11 08:03:16;;;;;;;1.90;1.70;;;;;;;20.32;67.34;98018.63;8400174;28;20395;-65
2021/07/11 08:07:24;;;;;;;3.90;1.43;;;;;;;20.28;67.08;98019.84;8397163;28;20212;-65
2021/07/11 08:11:28;;;;;;;2.50;1.60;;;;;;;20.36;67.53;98022.66;8399428;28;20193;-65
2021/07/11 08:15:34;;;;;;;2.13;1.57;;;;;;;20.43;67.16;98021.19;8401467;28;20266;-65
2021/07/11 08:19:41;;;;;;;1.70;1.60;;;;;;;20.49;67.59;98025.09;8399817;28;20214;-65
2021/07/11 08:23:44;;;;;;;2.27;1.53;;;;;;;20.25;68.12;98020.06;8399068;28;20195;-66
2021/07/11 08:27:49;;;;;;;1.93;1.70;;;;;;;20.35;66.95;98023.59;8398955;28;20396;-65
2021/07/11 08:31:54;;;;;;;3.67;1.80;;;;;;;20.47;66.71;98027.84;8397145;28;20225;-65
2021/07/11 08:35:58;;;;;;;2.97;1.60;;;;;;;20.49;67.68;98025.91;8398765;28;20274;-65
2021/07/11 08:40:02;;;;;;;2.00;1.80;;;;;;;20.45;67.04;98035.03;8395986;28;20192;-65
2021/07/11 08:44:05;;;;;;;1.60;1.50;;;;;;;20.37;67.53;98047.13;8398493;28;20202;-65
2021/07/11 08:48:11;;;;;;;2.27;1.80;;;;;;;20.33;67.95;98037.84;8396216;28;20378;-65
2021/07/11 08:52:15;;;;;;;2.03;1.83;;;;;;;20.37;67.96;98045.38;8397472;28;20223;-65
2021/07/11 08:56:19;;;;;;;2.33;1.70;;;;;;;20.37;67.28;98053.25;8397270;28;20289;-65
2021/07/11 09:00:23;;;;;;;2.27;1.80;;;;;;;20.45;67.65;98052.63;8387295;28;20206;-65
2021/07/11 09:04:37;;;;;;;1.70;1.60;;;;;;;20.43;67.01;98057.19;8397670;28;20203;-65
2021/07/11 09:08:42;;;;;;;1.70;1.60;;;;;;;20.41;68.10;98051.19;8388756;28;20226;-66
2021/07/11 09:12:53;;;;;;;1.60;1.50;;;;;;;20.48;67.34;98055.81;8400874;28;20221;-65
2021/07/11 09:16:59;;;;;;;2.00;1.80;;;;;;;20.50;67.04;98071.47;8382477;28;20200;-65
2021/07/11 09:21:07;;;;;;;1.80;1.70;;;;;;;20.53;67.89;98071.22;8411319;28;20199;-65
2021/07/11 09:25:14;;;;;;;2.80;1.60;;;;;;;20.55;67.16;98078.97;8414777;28;20343;-65
2021/07/11 09:29:28;;;;;;;3.30;1.80;;;;;;;20.67;67.36;98075.34;8414753;28;20238;-65
2021/07/11 09:33:31;;;;;;;1.50;1.40;;;;;;;20.67;67.38;98070.91;8410459;28;20222;-65
2021/07/11 09:37:36;;;;;;;4.27;1.80;;;;;;;20.65;67.67;98075.47;8398576;28;20196;-65
2021/07/11 09:41:39;;;;;;;1.90;1.80;;;;;;;20.66;67.62;98068.44;8413580;28;20202;-65
2021/07/11 09:45:42;;;;;;;2.43;1.73;;;;;;;20.72;66.63;98069.72;8414250;28;20271;-65
2021/07/11 09:49:56;;;;;;;4.00;1.70;;;;;;;20.70;67.47;98069.84;8413974;28;20204;-65
2021/07/11 09:54:10;;;;;;;2.43;1.67;;;;;;;20.74;67.10;98073.03;8394258;28;20230;-65
2021/07/11 09:58:12;;;;;;;2.07;1.80;;;;;;;20.70;66.94;98068.03;8380436;28;20199;-65
2021/07/11 10:02:15;;;;;;;4.23;1.90;;;;;;;20.69;67.24;98068.16;8407272;28;20195;-65
2021/07/11 10:06:18;;;;;;;2.47;1.80;;;;;;;20.69;67.01;98069.00;8417081;28;20551;-65
2021/07/11 10:10:25;;;;;;;1.83;1.73;;;;;;;20.66;66.93;98074.53;8419462;28;20211;-65
2021/07/11 10:14:28;;;;;;;2.43;2.00;;;;;;;20.63;67.14;98080.03;8419334;28;20445;-65
2021/07/11 10:18:31;;;;;;;2.60;2.33;;;;;;;20.71;67.57;98084.63;8414113;28;20204;-65
2021/07/11 10:22:42;;;;;;;2.80;1.87;;;;;;;20.68;66.55;98092.81;8385701;28;20526;-65
2021/07/11 10:26:46;;;;;;;3.23;2.07;;;;;;;20.69;66.65;98091.84;8385903;28;20209;-65
2021/07/11 10:30:49;;;;;;;3.87;1.90;;;;;;;20.67;66.19;98094.59;8385833;28;20538;-65
2021/07/11 10:34:51;;;;;;;2.77;2.03;;;;;;;20.64;67.35;98092.22;8385811;28;20223;-65
2021/07/11 10:38:56;;;;;;;2.97;2.20;;;;;;;20.73;66.14;98097.69;8385229;28;20205;-65
2021/07/11 10:43:01;;;;;;;3.97;2.30;;;;;;;20.78;65.78;98098.97;8396112;28;20514;-65
2021/07/11 10:47:05;;;;;;;2.70;2.17;;;;;;;20.76;65.44;98100.06;8392259;28;20209;-65
2021/07/11 10:51:18;;;;;;;3.93;2.20;;;;;;;20.68;65.34;98100.72;8385526;28;20208;-65
2021/07/11 10:55:21;;;;;;;2.63;2.13;;;;;;;20.80;63.88;98099.66;8401362;28;20237;-65
2021/07/11 10:59:33;;;;;;;3.80;2.23;;;;;;;20.94;64.83;98100.28;8417834;28;20270;-65
2021/07/11 11:03:45;;;;;;;3.63;2.37;;;;;;;21.05;66.20;98090.50;8417934;28;20397;-65
2021/07/11 11:07:49;;;;;;;2.60;2.40;;;;;;;21.23;66.30;98095.19;8406377;28;20227;-65
2021/07/11 11:11:52;;;;;;;4.50;2.70;;;;;;;21.19;65.86;98094.63;8395449;28;20197;-65
2021/07/11 11:15:57;;;;;;;3.97;2.30;;;;;;;21.28;63.30;98091.19;8385455;28;20230;-65
2021/07/11 11:20:07;;;;;;;2.33;2.13;;;;;;;21.37;63.27;98086.91;8393720;28;20365;-65
2021/07/11 11:24:10;;;;;;;2.90;2.40;;;;;;;21.40;63.51;98088.44;8393246;28;20200;-65
2021/07/11 11:28:12;;;;;;;3.37;2.30;;;;;;;21.51;63.87;98084.91;8394449;28;20220;-68
2021/07/11 11:32:17;;;;;;;4.67;2.47;;;;;;;21.63;63.00;98083.84;8396939;28;20377;-65
2021/07/11 11:36:21;;;;;;;5.73;2.30;;;;;;;21.43;62.50;98077.66;8409324;28;20415;-65
2021/07/11 11:40:28;;;;;;;2.97;2.60;;;;;;;21.60;63.73;98071.75;8416952;28;20361;-65
2021/07/11 11:44:30;;;;;;;3.77;2.63;;;;;;;21.67;63.66;98078.16;8416386;28;20497;-65
2021/07/11 11:48:36;;;;;;;3.50;2.50;;;;;;;21.65;62.73;98076.63;8416949;28;20509;-65
2021/07/11 11:52:39;;;;;;;2.93;2.00;;;;;;;21.77;62.72;98072.91;8416882;28;20223;-65
2021/07/11 11:56:42;;;;;;;2.93;2.30;;;;;;;21.70;62.50;98078.84;8416924;28;20206;-65
2021/07/11 12:00:45;;;;;;;3.17;2.30;;;;;;;21.55;62.39;98081.88;8406831;28;20193;-65
2021/07/11 12:04:49;;;;;;;3.10;2.20;;;;;;;21.77;61.38;98088.72;8414467;28;20194;-65
2021/07/11 12:08:56;;;;;;;3.30;2.10;;;;;;;21.93;61.11;98084.72;8416648;28;20292;-65
2021/07/11 12:13:01;;;;;;;4.33;2.57;;;;;;;21.83;61.65;98080.25;8416445;28;20203;-66
2021/07/11 12:17:06;;;;;;;3.50;2.30;;;;;;;21.92;60.01;98075.16;8397756;28;20261;-64
2021/07/11 12:21:10;;;;;;;5.47;2.83;;;;;;;21.65;61.41;98082.72;8383275;28;20379;-65
2021/07/11 12:25:17;;;;;;;5.23;2.77;;;;;;;22.11;60.42;98087.53;8383279;28;20218;-64
2021/07/11 12:29:27;;;;;;;2.60;2.40;;;;;;;21.80;60.66;98087.59;8382912;28;20234;-64
2021/07/11 12:33:32;;;;;;;3.60;2.80;;;;;;;21.63;60.36;98083.84;8382728;28;20232;-64
2021/07/11 12:37:37;;;;;;;9.73;2.97;;;;;;;21.28;61.81;98082.44;8400510;28;20493;-64
2021/07/11 12:41:39;;;;;;;9.67;2.70;;;;;;;21.77;61.44;98079.97;8390461;28;20199;-64
2021/07/11 12:45:42;;;;;;;4.50;2.43;;;;;;;21.77;60.50;98070.28;8398443;28;20521;-64
2021/07/11 12:49:52;;;;;;;3.67;2.50;;;;;;;21.93;60.19;98064.44;8405037;28;20205;-64
2021/07/11 12:53:58;;;;;;;4.37;2.50;;;;;;;21.94;58.12;98062.66;8411342;28;20219;-64
2021/07/11 12:58:11;;;;;;;3.37;2.30;;;;;;;21.67;59.18;98061.53;8380949;28;20196;-64
2021/07/11 13:02:19;;;;;;;3.53;2.20;;;;;;;21.82;59.64;98057.53;8381010;28;20196;-64
2021/07/11 13:06:30;;;;;;;2.60;2.40;;;;;;;21.80;59.55;98051.56;8381755;28;20224;-64
2021/07/11 13:10:34;;;;;;;3.67;2.47;;;;;;;21.58;60.63;98057.88;8382015;28;20207;-64
2021/07/11 13:14:39;;;;;;;6.93;2.57;;;;;;;21.97;60.28;98054.47;8382030;28;20232;-64
2021/07/11 13:18:41;;;;;;;6.13;2.43;;;;;;;22.07;57.78;98055.31;8381830;28;20227;-64
2021/07/11 13:22:44;;;;;;;5.43;2.40;;;;;;;21.82;58.46;98059.34;8381099;28;20192;-65
2021/07/11 13:26:48;;;;;;;5.10;2.60;;;;;;;21.96;57.79;98066.00;8381531;28;20201;-64
2021/07/11 13:30:54;;;;;;;4.37;2.73;;;;;;;22.16;58.31;98064.19;8381812;28;20242;-64
2021/07/11 13:34:57;;;;;;;3.40;2.00;;;;;;;22.19;58.36;98069.19;8381871;28;20240;-65
2021/07/11 13:39:01;;;;;;;3.40;2.20;;;;;;;21.99;57.31;98061.28;8382333;28;20203;-65
2021/07/11 13:43:05;;;;;;;2.67;2.47;;;;;;;22.07;58.62;98060.59;8388213;28;20200;-65
2021/07/11 13:47:08;;;;;;;3.33;2.30;;;;;;;22.05;58.65;98059.91;8388406;28;20214;-65
2021/07/11 13:51:11;;;;;;;4.20;2.60;;;;;;;22.03;59.26;98064.50;8388039;28;20214;-64
2021/07/11 13:55:18;;;;;;;3.13;2.60;;;;;;;21.97;58.99;98062.38;8387975;28;20435;-64
2021/07/11 13:59:22;;;;;;;4.23;2.40;;;;;;;21.95;59.35;98073.09;8387954;28;20199;-64
2021/07/11 14:03:24;;;;;;;4.47;2.53;;;;;;;21.94;59.52;98068.78;8387634;28;20203;-64
2021/07/11 14:07:27;;;;;;;5.33;2.90;;;;;;;21.85;59.75;98073.03;8387275;28;20227;-65
2021/07/11 14:11:30;;;;;;;3.63;2.50;;;;;;;21.90;59.91;98063.91;8387439;28;20221;-65
2021/07/11 14:15:34;;;;;;;3.10;2.80;;;;;;;21.83;60.30;98066.25;8387391;28;20223;-64
2021/07/11 14:19:37;;;;;;;3.17;2.30;;;;;;;21.64;61.67;98062.59;8387192;28;20203;-64
2021/07/11 14:23:40;;;;;;;4.60;2.40;;;;;;;21.57;61.84;98058.88;8387282;28;20218;-64
2021/07/11 14:27:43;;;;;;;2.07;1.97;;;;;;;21.61;62.34;98062.03;8386639;28;20199;-64
2021/07/11 14:31:47;;;;;;;3.73;2.70;;;;;;;21.62;63.32;98063.72;8387412;28;20206;-64
2021/07/11 14:35:50;;;;;;;5.33;2.80;;;;;;;21.66;63.32;98051.94;8387159;28;20234;-64
2021/07/11 14:39:53;;;;;;;4.20;3.10;;;;;;;21.66;63.79;98044.03;8386764;28;20203;-64
2021/07/11 14:43:56;;;;;;;6.13;2.77;;;;;;;21.73;63.42;98033.78;8386234;28;20203;-64
2021/07/11 14:48:00;;;;;;;3.77;2.80;;;;;;;21.82;62.75;98036.44;8386443;28;20294;-64
2021/07/11 14:52:04;;;;;;;5.77;2.90;;;;;;;21.92;62.11;98033.81;8386450;28;20226;-64
2021/07/11 14:56:08;;;;;;;2.70;2.50;;;;;;;21.94;61.94;98034.50;8386087;28;20234;-64
2021/07/11 15:00:12;;;;;;;2.60;2.30;;;;;;;21.92;60.99;98031.16;8386190;28;20424;-64
2021/07/11 15:04:16;;;;;;;5.53;2.40;;;;;;;21.82;60.51;98028.53;8386037;28;20202;-64
2021/07/11 15:08:19;;;;;;;2.30;2.10;;;;;;;21.94;59.70;98016.03;8385762;28;20231;-64
2021/07/11 15:12:22;;;;;;;3.67;2.37;;;;;;;21.89;58.71;98020.06;8385894;28;20199;-64
2021/07/11 15:16:25;;;;;;;2.77;2.17;;;;;;;21.92;59.20;98020.63;8385390;28;20237;-64
2021/07/11 15:20:29;;;;;;;3.77;2.23;;;;;;;21.93;60.40;98017.00;8385447;28;20223;-65
2021/07/11 15:24:32;;;;;;;2.10;1.90;;;;;;;21.96;58.40;98003.56;8385160;28;20306;-65
2021/07/11 15:28:36;;;;;;;2.80;2.20;;;;;;;21.95;59.49;98007.19;8384809;28;20302;-65
2021/07/11 15:32:39;;;;;;;2.50;2.30;;;;;;;22.01;60.90;98003.97;8384899;28;20411;-65
2021/07/11 15:36:43;;;;;;;4.67;2.60;;;;;;;21.67;60.13;98001.75;8384886;28;20237;-64
2021/07/11 15:40:47;;;;;;;5.10;2.60;;;;;;;21.66;59.82;98000.06;8384940;28;20210;-64
2021/07/11 15:44:50;;;;;;;2.93;2.33;;;;;;;21.73;60.19;97996.91;8384159;28;20393;-64
2021/07/11 15:48:53;;;;;;;3.87;2.70;;;;;;;21.78;59.72;98002.56;8383972;28;20211;-64
2021/07/11 15:52:58;;;;;;;3.23;2.60;;;;;;;21.78;60.28;97992.88;8383918;28;20340;-65
2021/07/11 15:57:00;;;;;;;2.67;2.47;;;;;;;21.86;60.61;97995.66;8383667;28;20226;-64
2021/07/11 16:01:03;;;;;;;7.80;2.53;;;;;;;21.73;60.40;97997.72;8394239;28;20599;-64
2021/07/11 16:05:09;;;;;;;2.67;2.43;;;;;;;21.86;59.85;97992.19;8398525;28;20198;-65
2021/07/11 16:09:13;;;;;;;5.77;2.60;;;;;;;21.60;60.12;97994.50;8399064;28;20199;-64
2021/07/11 16:13:16;;;;;;;3.80;2.77;;;;;;;21.64;60.38;97988.81;8383193;28;20200;-64
2021/07/11 16:17:19;;;;;;;4.63;2.90;;;;;;;21.59;60.41;97990.19;8382986;28;20227;-64
2021/07/11 16:21:24;;;;;;;3.70;2.77;;;;;;;21.65;60.78;97985.22;8382954;28;20219;-64
2021/07/11 16:25:28;;;;;;;3.07;2.47;;;;;;;21.76;61.01;97976.38;8393148;28;20203;-65
2021/07/11 16:29:31;;;;;;;3.23;2.50;;;;;;;21.78;61.49;97974.44;8397923;28;20219;-64
2021/07/11 16:33:33;;;;;;;3.30;2.57;;;;;;;21.64;60.70;97967.75;8398123;28;20206;-64
2021/07/11 16:37:49;;;;;;;3.33;2.50;;;;;;;21.67;61.40;97961.38;8392744;28;20234;-64
2021/07/11 16:41:55;;;;;;;4.03;3.10;;;;;;;21.56;61.46;97959.69;8382260;28;20350;-64
2021/07/11 16:45:57;;;;;;;3.03;2.60;;;;;;;21.61;62.09;97964.53;8392629;28;20202;-64
2021/07/11 16:50:01;;;;;;;3.23;2.93;;;;;;;21.57;61.46;97961.38;8397942;28;20194;-65
2021/07/11 16:54:04;;;;;;;5.57;2.87;;;;;;;21.65;62.22;97961.50;8397834;28;20191;-65
2021/07/11 16:58:08;;;;;;;3.17;2.87;;;;;;;21.59;63.26;97948.91;8395577;28;20223;-65
2021/07/11 17:02:11;;;;;;;3.80;2.70;;;;;;;21.36;62.78;97944.81;8397248;28;20195;-65
2021/07/11 17:06:14;;;;;;;6.20;4.07;;;;;;;21.36;63.16;97948.28;8400335;28;20212;-65
2021/07/11 17:10:17;;;;;;;4.07;2.97;;;;;;;21.45;62.80;97951.94;8410786;28;20205;-65
2021/07/11 17:14:22;;;;;;;4.30;3.60;;;;;;;21.36;63.53;97948.28;8413830;28;20211;-65
2021/07/11 17:18:25;;;;;;;4.30;3.03;;;;;;;21.47;63.56;97947.34;8395084;28;20305;-65
2021/07/11 17:22:28;;;;;;;5.77;3.30;;;;;;;21.23;64.57;97945.09;8381094;28;20203;-65
2021/07/11 17:26:31;;;;;;;5.00;2.97;;;;;;;21.36;64.21;97955.34;8386469;28;20230;-64
2021/07/11 17:30:36;;;;;;;4.27;3.13;;;;;;;21.32;64.63;97956.59;8400139;28;20541;-65
2021/07/11 17:34:39;;;;;;;4.70;3.17;;;;;;;21.36;64.48;97960.59;8408851;28;20203;-64
2021/07/11 17:38:42;;;;;;;3.90;3.10;;;;;;;21.28;64.86;97951.59;8412865;28;20200;-65
2021/07/11 17:42:44;;;;;;;4.90;3.10;;;;;;;21.23;65.13;97961.72;8408008;28;20202;-65
2021/07/11 17:46:49;;;;;;;3.63;3.17;;;;;;;21.22;65.16;97962.66;8412935;28;20269;-65
2021/07/11 17:50:53;;;;;;;5.10;3.17;;;;;;;21.22;64.90;97970.56;8405038;28;20202;-65
2021/07/11 17:54:56;;;;;;;3.27;2.93;;;;;;;20.96;64.83;97964.13;8410980;28;20394;-65
2021/07/11 17:58:58;;;;;;;8.33;3.27;;;;;;;20.64;65.93;97959.84;8408801;28;20195;-65
2021/07/11 18:03:03;;;;;;;3.93;3.30;;;;;;;20.79;65.38;97958.53;8384186;28;20219;-64
2021/07/11 18:07:06;;;;;;;3.87;2.93;;;;;;;21.01;64.60;97964.56;8380793;28;20222;-64
2021/07/11 18:11:09;;;;;;;5.40;4.20;;;;;;;21.06;64.34;97957.91;8380302;28;20200;-64
2021/07/11 18:15:13;;;;;;;3.67;2.97;;;;;;;21.07;63.92;97969.28;8410209;28;20209;-64
2021/07/11 18:19:17;;;;;;;5.43;3.60;;;;;;;21.05;64.53;97956.25;8413520;28;20378;-64
2021/07/11 18:23:20;;;;;;;3.73;3.20;;;;;;;20.77;65.35;97952.56;8413463;28;20210;-65
2021/07/11 18:27:24;;;;;;;4.03;3.63;;;;;;;20.83;65.17;97948.56;8417267;28;20224;-64
2021/07/11 18:31:29;;;;;;;3.73;3.30;;;;;;;20.91;64.89;97951.38;8419706;28;20554;-64
2021/07/11 18:35:34;;;;;;;6.80;3.67;;;;;;;20.73;64.93;97955.59;8418813;28;20558;-64
2021/07/11 18:39:41;;;;;;;3.97;3.50;;;;;;;20.82;64.67;97949.53;8419313;28;20262;-63
2021/07/11 18:43:44;;;;;;;4.97;3.57;;;;;;;20.66;65.26;97944.78;8418647;28;20206;-63
2021/07/11 18:47:47;;;;;;;5.23;3.93;;;;;;;20.67;65.18;97951.69;8419046;28;20576;-63
2021/07/11 18:51:51;;;;;;;5.57;4.07;;;;;;;20.70;65.62;97940.91;8418728;28;20486;-63
2021/07/11 18:55:54;;;;;;;5.13;3.60;;;;;;;20.65;66.62;97938.66;8403556;28;20226;-64
2021/07/11 18:59:57;;;;;;;5.97;3.93;;;;;;;20.71;65.99;97953.06;8400820;28;20198;-63
2021/07/11 19:04:00;;;;;;;8.50;4.17;;;;;;;20.68;66.44;97951.56;8400852;28;20389;-64
2021/07/11 19:08:05;;;;;;;4.33;3.40;;;;;;;20.66;65.41;97940.34;8400724;28;20500;-64
2021/07/11 19:12:08;;;;;;;5.30;3.57;;;;;;;20.62;65.49;97945.97;8401330;28;20191;-64